createdAt,value
2023-02-21T00:01:16.481Z,1.20
2023-02-21T00:04:07.463Z,1.90
2023-02-21T00:06:55.547Z,1.70
2023-02-21T00:09:43.688Z,1.70
2023-02-21T00:12:31.610Z,1.40
2023-02-21T00:15:19.512Z,1.90
2023-02-21T00:18:07.496Z,1.70
2023-02-21T00:20:55.752Z,2.10
2023-02-21T00:23:44.087Z,1.50
2023-02-21T00:26:35.737Z,1.60
2023-02-21T00:29:24.536Z,2.10
2023-02-21T00:32:12.740Z,2.30
2023-02-21T00:35:04.145Z,1.70
2023-02-21T00:37:51.955Z,2.40
2023-02-21T00:40:40.355Z,2.30
2023-02-21T00:43:28.815Z,2.10
2023-02-21T00:46:17.007Z,2.30
2023-02-21T00:49:05.405Z,2.10
2023-02-21T00:51:53.793Z,2.00
2023-02-21T00:54:41.613Z,1.90
2023-02-21T00:57:29.961Z,2.20
2023-02-21T01:00:18.426Z,2.00
2023-02-21T01:03:06.442Z,2.00
2023-02-21T01:05:54.714Z,2.60
2023-02-21T01:08:43.023Z,2.20
2023-02-21T01:11:37.042Z,2.00
2023-02-21T01:14:28.318Z,1.90
2023-02-21T01:17:16.743Z,1.90
2023-02-21T01:20:04.964Z,2.40
2023-02-21T01:22:57.492Z,2.30
2023-02-21T01:25:46.227Z,2.60
2023-02-21T01:28:34.403Z,2.10
2023-02-21T01:31:25.262Z,2.40
2023-02-21T01:34:13.124Z,2.20
2023-02-21T01:37:02.630Z,2.00
2023-02-21T01:39:50.303Z,1.70
2023-02-21T01:42:38.682Z,2.00
2023-02-21T01:46:04.654Z,2.00
2023-02-21T01:48:54.265Z,2.90
2023-02-21T01:51:46.053Z,1.70
2023-02-21T01:54:34.673Z,2.00
2023-02-21T01:57:24.905Z,1.80
2023-02-21T02:00:15.951Z,2.10
2023-02-21T02:03:10.579Z,1.80
2023-02-21T02:06:00.467Z,2.20
2023-02-21T02:08:50.996Z,1.70
2023-02-21T02:11:57.827Z,2.00
2023-02-21T02:14:47.352Z,1.30
2023-02-21T02:17:40.198Z,1.80
2023-02-21T02:20:33.243Z,1.70
2023-02-21T02:23:41.751Z,1.70
2023-02-21T02:26:57.398Z,1.60
2023-02-21T02:29:46.121Z,1.70
2023-02-21T02:32:35.936Z,1.30
2023-02-21T02:35:10.388Z,1.20
2023-02-21T02:37:52.389Z,1.60
2023-02-21T02:40:32.061Z,1.30
2023-02-21T02:43:15.271Z,1.50
2023-02-21T02:45:52.197Z,1.10
2023-02-21T02:48:34.599Z,1.10
2023-02-21T02:51:12.498Z,1.00
2023-02-21T02:53:43.733Z,1.30
2023-02-21T02:56:16.297Z,1.00
2023-02-21T02:58:51.856Z,1.20
2023-02-21T03:01:41.367Z,1.40
2023-02-21T03:04:31.795Z,1.10
2023-02-21T03:07:10.891Z,1.10
2023-02-21T03:09:53.291Z,1.10
2023-02-21T03:12:33.997Z,1.00
2023-02-21T03:15:17.715Z,1.20
2023-02-21T03:17:54.927Z,1.00
2023-02-21T03:20:27.128Z,1.40
2023-02-21T03:23:00.382Z,1.40
2023-02-21T03:25:33.598Z,1.40
2023-02-21T03:28:06.436Z,1.00
2023-02-21T03:30:46.260Z,1.30
2023-02-21T03:33:16.740Z,1.10
2023-02-21T03:35:47.797Z,1.50
2023-02-21T03:38:18.777Z,1.10
2023-02-21T03:40:49.260Z,1.70
2023-02-21T03:43:20.052Z,1.40
2023-02-21T03:45:57.425Z,1.30
2023-02-21T03:48:36.042Z,1.70
2023-02-21T03:51:24.647Z,1.30
2023-02-21T03:53:58.710Z,1.40
2023-02-21T03:56:42.211Z,1.70
2023-02-21T03:59:28.394Z,1.80
2023-02-21T04:02:01.979Z,1.70
2023-02-21T04:04:34.926Z,1.80
2023-02-21T04:07:18.429Z,1.90
2023-02-21T04:09:50.208Z,1.70
2023-02-21T04:12:28.108Z,2.40
2023-02-21T04:15:00.273Z,2.50
2023-02-21T04:17:31.326Z,2.20
2023-02-21T04:20:03.461Z,2.50
2023-02-21T04:22:36.092Z,2.00
2023-02-21T04:25:07.142Z,2.40
2023-02-21T04:27:50.348Z,2.60
2023-02-21T04:30:26.018Z,2.10
2023-02-21T04:32:59.390Z,2.50
2023-02-21T04:35:30.235Z,2.40
2023-02-21T04:38:06.435Z,2.30
2023-02-21T04:40:37.873Z,2.50
2023-02-21T04:43:11.537Z,2.50
2023-02-21T04:45:43.259Z,2.80
2023-02-21T04:48:14.083Z,2.80
2023-02-21T04:50:44.567Z,3.20
2023-02-21T04:53:15.679Z,3.00
2023-02-21T04:55:46.321Z,2.70
2023-02-21T04:58:20.949Z,3.10
2023-02-21T05:00:51.596Z,3.20
2023-02-21T05:03:22.044Z,2.80
2023-02-21T05:05:52.626Z,3.30
2023-02-21T05:08:27.417Z,3.00
2023-02-21T05:10:59.270Z,2.90
2023-02-21T05:13:29.811Z,3.20
2023-02-21T05:16:00.696Z,3.60
2023-02-21T05:18:31.315Z,3.60
2023-02-21T05:21:03.380Z,3.50
2023-02-21T05:23:38.506Z,3.10
2023-02-21T05:26:14.016Z,3.10
2023-02-21T05:28:47.395Z,3.60
2023-02-21T05:31:18.585Z,3.40
2023-02-21T05:33:49.312Z,3.30
2023-02-21T05:36:20.682Z,3.50
2023-02-21T05:38:53.630Z,3.60
2023-02-21T05:41:24.760Z,3.00
2023-02-21T05:43:55.629Z,3.60
2023-02-21T05:46:30.133Z,4.30
2023-02-21T05:49:01.882Z,4.00
2023-02-21T05:51:37.574Z,3.50
2023-02-21T05:54:09.516Z,3.80
2023-02-21T05:56:44.782Z,3.90
2023-02-21T05:59:21.240Z,3.00
2023-02-21T06:01:52.212Z,3.20
2023-02-21T06:04:25.579Z,3.40
2023-02-21T06:06:58.255Z,3.10
2023-02-21T06:09:31.229Z,3.90
2023-02-21T06:12:04.170Z,3.90
2023-02-21T06:14:39.703Z,4.00
2023-02-21T06:17:10.176Z,3.90
2023-02-21T06:19:41.537Z,3.10
2023-02-21T06:22:14.990Z,4.00
2023-02-21T06:24:48.599Z,3.80
2023-02-21T06:27:19.750Z,4.10
2023-02-21T06:29:50.484Z,4.30
2023-02-21T06:32:21.002Z,3.60
2023-02-21T06:34:51.614Z,3.80
2023-02-21T06:37:23.147Z,4.70
2023-02-21T06:39:53.535Z,4.50
2023-02-21T06:42:31.532Z,4.30
2023-02-21T06:45:02.125Z,4.00
2023-02-21T06:47:32.888Z,4.30
2023-02-21T06:50:03.327Z,3.90
2023-02-21T06:52:35.073Z,4.10
2023-02-21T06:55:15.957Z,4.20
2023-02-21T06:57:46.372Z,5.00
2023-02-21T07:00:18.621Z,5.20
2023-02-21T07:02:52.180Z,4.60
2023-02-21T07:05:23.423Z,5.50
2023-02-21T07:07:54.280Z,5.00
2023-02-21T07:10:26.981Z,4.70
2023-02-21T07:12:57.610Z,5.10
2023-02-21T07:15:28.680Z,5.30
2023-02-21T07:17:59.119Z,5.20
2023-02-21T07:20:35.900Z,4.20
2023-02-21T07:23:06.469Z,4.80
2023-02-21T07:25:39.064Z,4.60
2023-02-21T07:28:10.028Z,4.70
2023-02-21T07:30:41.325Z,4.60
2023-02-21T07:33:16.859Z,4.40
2023-02-21T07:35:47.309Z,3.90
2023-02-21T07:38:27.805Z,4.00
2023-02-21T07:41:02.127Z,4.80
2023-02-21T07:43:35.570Z,3.70
2023-02-21T07:46:10.840Z,4.00
2023-02-21T07:48:41.899Z,4.10
2023-02-21T07:51:15.348Z,4.00
2023-02-21T07:53:48.330Z,4.30
2023-02-21T07:56:18.857Z,4.10
2023-02-21T07:58:51.595Z,3.60
2023-02-21T08:01:25.959Z,4.10
2023-02-21T08:03:58.125Z,3.60
2023-02-21T08:06:28.704Z,4.00
2023-02-21T08:09:00.786Z,3.80
2023-02-21T08:11:39.492Z,3.30
2023-02-21T08:14:11.116Z,3.50
2023-02-21T08:16:43.849Z,3.50
2023-02-21T08:19:14.561Z,3.10
2023-02-21T08:21:49.199Z,3.00
2023-02-21T08:24:20.928Z,3.10
2023-02-21T08:26:53.279Z,3.60
2023-02-21T08:29:27.169Z,2.60
2023-02-21T08:31:58.982Z,2.70
2023-02-21T08:34:30.982Z,3.00
2023-02-21T08:37:01.802Z,2.80
2023-02-21T08:39:32.421Z,3.20
2023-02-21T08:42:04.263Z,3.00
2023-02-21T08:44:34.902Z,2.60
2023-02-21T08:47:05.595Z,2.00
2023-02-21T08:49:44.450Z,2.70
2023-02-21T08:52:16.615Z,2.70
2023-02-21T08:54:50.722Z,2.30
2023-02-21T08:57:21.209Z,2.30
2023-02-21T08:59:51.632Z,1.90
2023-02-21T09:02:25.247Z,2.10
2023-02-21T09:04:55.772Z,1.80
2023-02-21T09:07:28.762Z,2.30
2023-02-21T09:10:01.235Z,2.20
2023-02-21T09:12:34.125Z,2.10
2023-02-21T09:15:04.765Z,1.80
2023-02-21T09:17:35.303Z,2.10
2023-02-21T09:20:10.172Z,2.00
2023-02-21T09:22:43.531Z,2.10
2023-02-21T09:25:15.114Z,2.10
2023-02-21T09:27:45.723Z,2.20
2023-02-21T09:30:20.484Z,2.10
2023-02-21T09:32:52.337Z,1.60
2023-02-21T09:35:23.809Z,2.00
2023-02-21T09:37:54.434Z,2.20
2023-02-21T09:40:40.644Z,2.10
2023-02-21T09:43:17.058Z,2.40
2023-02-21T09:45:48.899Z,2.20
2023-02-21T09:48:24.230Z,2.10
2023-02-21T09:50:59.752Z,2.20
2023-02-21T09:53:34.507Z,2.00
2023-02-21T09:56:12.241Z,2.30
2023-02-21T09:58:45.677Z,2.00
2023-02-21T10:01:26.872Z,2.10
2023-02-21T10:04:07.181Z,1.90
2023-02-21T10:06:44.388Z,2.10
2023-02-21T10:09:27.980Z,1.80
2023-02-21T10:12:15.091Z,2.00
2023-02-21T10:15:04.443Z,2.00
2023-02-21T10:17:40.871Z,2.00
2023-02-21T10:20:17.356Z,2.50
2023-02-21T10:22:51.434Z,2.10
2023-02-21T10:25:37.034Z,1.90
2023-02-21T10:28:09.555Z,1.80
2023-02-21T10:30:49.667Z,1.90
2023-02-21T10:33:33.141Z,1.90
2023-02-21T10:36:05.892Z,1.90
2023-02-21T10:38:36.964Z,2.10
2023-02-21T10:41:08.368Z,2.10
2023-02-21T10:43:42.892Z,2.00
2023-02-21T10:46:24.927Z,2.10
2023-02-21T10:49:11.770Z,1.50
2023-02-21T10:51:42.588Z,1.90
2023-02-21T10:54:27.320Z,2.30
2023-02-21T10:56:58.010Z,2.60
2023-02-21T10:59:31.917Z,2.60
2023-02-21T11:02:05.042Z,2.80
2023-02-21T11:04:38.586Z,2.70
2023-02-21T11:07:16.018Z,3.20
2023-02-21T11:09:48.192Z,2.40
2023-02-21T11:12:29.687Z,2.70
2023-02-21T11:15:20.622Z,2.30
2023-02-21T11:18:06.432Z,1.90
2023-02-21T11:20:37.163Z,2.40
2023-02-21T11:23:19.619Z,1.60
2023-02-21T11:25:53.737Z,1.80
2023-02-21T11:28:26.076Z,1.60
2023-02-21T11:31:14.592Z,1.50
2023-02-21T11:33:57.187Z,1.20
2023-02-21T11:36:31.671Z,1.30
2023-02-21T11:39:17.437Z,1.30
2023-02-21T11:41:54.828Z,1.50
2023-02-21T11:44:34.209Z,1.40
2023-02-21T11:47:15.621Z,1.20
2023-02-21T11:50:12.139Z,1.30
2023-02-21T11:52:49.094Z,1.70
2023-02-21T11:55:26.262Z,1.40
2023-02-21T11:58:12.778Z,1.70
2023-02-21T12:01:04.654Z,1.70
2023-02-21T12:03:51.229Z,1.60
2023-02-21T12:06:29.859Z,1.40
2023-02-21T12:09:08.492Z,1.10
2023-02-21T12:11:51.959Z,1.00
2023-02-21T12:14:50.546Z,1.10
2023-02-21T12:17:47.653Z,1.00
2023-02-21T12:20:38.416Z,0.90
2023-02-21T12:23:20.671Z,0.70
2023-02-21T12:26:07.788Z,1.10
2023-02-21T12:28:54.929Z,1.00
2023-02-21T12:31:35.296Z,1.00
2023-02-21T12:34:19.201Z,1.10
2023-02-21T12:37:00.924Z,0.90
2023-02-21T12:39:45.202Z,1.00
2023-02-21T12:42:40.143Z,0.80
2023-02-21T12:45:32.485Z,0.90
2023-02-21T12:48:16.180Z,0.90
2023-02-21T12:50:51.784Z,0.90
2023-02-21T12:53:29.560Z,0.80
2023-02-21T12:56:06.555Z,0.90
2023-02-21T13:01:16.029Z,0.90
2023-02-21T13:04:00.135Z,0.70
2023-02-21T13:06:35.332Z,0.80
2023-02-21T13:09:19.413Z,0.80
2023-02-21T13:11:57.703Z,0.70
2023-02-21T13:14:33.290Z,0.50
2023-02-21T13:17:11.851Z,0.40
2023-02-21T13:19:47.386Z,1.00
2023-02-21T13:22:40.277Z,0.50
2023-02-21T13:25:39.874Z,0.80
2023-02-21T13:28:17.588Z,0.70
2023-02-21T13:30:54.465Z,0.80
2023-02-21T13:33:38.526Z,0.80
2023-02-21T13:36:27.863Z,0.80
2023-02-21T13:39:05.692Z,0.90
2023-02-21T13:41:41.919Z,0.90
2023-02-21T13:44:19.027Z,0.70
2023-02-21T13:47:13.831Z,0.70
2023-02-21T13:49:53.163Z,0.70
2023-02-21T13:53:00.612Z,0.80
2023-02-21T13:55:33.028Z,0.70
2023-02-21T13:58:40.515Z,0.80
2023-02-21T14:01:39.016Z,0.80
2023-02-21T14:04:36.438Z,0.70
2023-02-21T14:07:07.376Z,0.80
2023-02-21T14:09:42.407Z,0.90
2023-02-21T14:12:16.050Z,0.90
2023-02-21T14:14:53.633Z,0.80
2023-02-21T14:17:31.022Z,0.90
2023-02-21T14:20:03.852Z,0.90
2023-02-21T14:22:36.014Z,0.90
2023-02-21T14:25:18.757Z,0.80
2023-02-21T14:27:49.369Z,0.90
2023-02-21T14:30:35.680Z,1.00
2023-02-21T14:33:35.332Z,0.90
2023-02-21T14:36:10.400Z,1.40
2023-02-21T14:38:44.262Z,1.50
2023-02-21T14:41:30.536Z,1.80
2023-02-21T14:44:20.653Z,2.20
2023-02-21T14:47:15.873Z,1.40
2023-02-21T14:50:17.441Z,1.90
2023-02-21T14:53:09.156Z,1.60
2023-02-21T14:55:55.010Z,1.50
2023-02-21T14:58:59.147Z,1.20
2023-02-21T15:01:43.347Z,1.40
2023-02-21T15:04:22.691Z,2.30
2023-02-21T15:07:03.176Z,1.20
2023-02-21T15:09:34.873Z,1.20
2023-02-21T15:12:09.615Z,1.20
2023-02-21T15:14:43.010Z,1.10
2023-02-21T15:17:23.888Z,2.00
2023-02-21T15:20:11.324Z,2.20
2023-02-21T15:22:41.839Z,2.20
2023-02-21T15:25:21.328Z,2.10
2023-02-21T15:28:02.267Z,2.50
2023-02-21T15:30:37.024Z,2.80
2023-02-21T15:33:19.008Z,2.00
2023-02-21T15:35:54.756Z,2.10
2023-02-21T15:38:31.731Z,2.00
2023-02-21T15:41:07.283Z,2.00
2023-02-21T15:43:49.672Z,1.60
2023-02-21T15:46:25.645Z,1.70
2023-02-21T15:49:01.129Z,1.30
2023-02-21T15:51:33.427Z,1.60
2023-02-21T15:54:31.055Z,1.90
2023-02-21T15:57:09.693Z,1.40
2023-02-21T15:59:41.565Z,1.20
2023-02-21T16:02:24.370Z,1.10
2023-02-21T16:04:55.324Z,1.10
2023-02-21T16:07:33.932Z,1.10
2023-02-21T16:10:07.436Z,1.20
2023-02-21T16:12:43.675Z,1.00
2023-02-21T16:15:26.576Z,1.00
2023-02-21T16:18:00.263Z,1.10
2023-02-21T16:20:34.429Z,1.00
2023-02-21T16:23:26.846Z,0.90
2023-02-21T16:26:03.564Z,1.20
2023-02-21T16:28:34.070Z,1.10
2023-02-21T16:31:08.776Z,1.10
2023-02-21T16:33:39.367Z,1.20
2023-02-21T16:36:18.966Z,0.90
2023-02-21T16:38:49.368Z,1.20
2023-02-21T16:41:20.103Z,1.10
2023-02-21T16:43:51.497Z,1.00
2023-02-21T16:46:30.221Z,1.00
2023-02-21T16:49:00.967Z,1.00
2023-02-21T16:51:37.542Z,0.90
2023-02-21T16:54:14.262Z,1.00
2023-02-21T16:56:56.298Z,0.70
2023-02-21T16:59:31.934Z,1.00
2023-02-21T17:02:04.311Z,0.80
2023-02-21T17:04:34.889Z,1.10
2023-02-21T17:07:09.573Z,0.90
2023-02-21T17:09:40.860Z,0.90
2023-02-21T17:12:13.585Z,1.00
2023-02-21T17:14:48.017Z,1.00
2023-02-21T17:17:18.532Z,0.90
2023-02-21T17:19:48.934Z,1.00
2023-02-21T17:22:19.399Z,1.10
2023-02-21T17:24:50.191Z,0.90
2023-02-21T17:27:20.654Z,0.80
2023-02-21T17:29:51.548Z,0.90
2023-02-21T17:32:22.019Z,1.00
2023-02-21T17:34:52.639Z,0.80
2023-02-21T17:37:23.390Z,1.00
2023-02-21T17:39:56.813Z,1.10
2023-02-21T17:42:37.453Z,0.60
2023-02-21T17:45:09.469Z,1.50
2023-02-21T17:47:42.109Z,1.60
2023-02-21T17:50:13.844Z,1.70
2023-02-21T17:52:44.499Z,1.40
2023-02-21T17:55:20.748Z,1.90
2023-02-21T17:57:51.752Z,1.70
2023-02-21T18:00:25.414Z,1.90
2023-02-21T18:02:57.113Z,1.90
2023-02-21T18:05:30.230Z,1.60
2023-02-21T18:08:12.119Z,2.00
2023-02-21T18:10:46.712Z,1.50
2023-02-21T18:13:23.735Z,1.90
2023-02-21T18:15:57.242Z,1.80
2023-02-21T18:18:29.854Z,1.50
2023-02-21T18:21:02.477Z,1.70
2023-02-21T18:23:33.928Z,1.40
2023-02-21T18:26:06.165Z,2.10
2023-02-21T18:28:36.562Z,2.10
2023-02-21T18:31:10.012Z,2.00
2023-02-21T18:33:41.246Z,2.30
2023-02-21T18:36:12.586Z,2.70
2023-02-21T18:38:43.451Z,2.20
2023-02-21T18:41:16.308Z,2.20
2023-02-21T18:43:47.827Z,2.30
2023-02-21T18:46:21.171Z,2.30
2023-02-21T18:48:52.681Z,2.50
2023-02-21T18:51:33.064Z,2.20
2023-02-21T18:54:04.513Z,2.60
2023-02-21T18:56:35.075Z,2.50
2023-02-21T18:59:08.547Z,2.60
2023-02-21T19:01:39.743Z,2.90
2023-02-21T19:04:10.575Z,2.70
2023-02-21T19:06:41.073Z,2.70
2023-02-21T19:09:16.362Z,2.80
2023-02-21T19:11:47.180Z,3.20
2023-02-21T19:14:20.043Z,3.00
2023-02-21T19:16:53.376Z,3.00
2023-02-21T19:19:24.168Z,3.20
2023-02-21T19:22:03.445Z,2.60
2023-02-21T19:24:42.042Z,3.40
2023-02-21T19:27:12.991Z,3.50
2023-02-21T19:29:47.396Z,3.20
2023-02-21T19:32:19.301Z,2.70
2023-02-21T19:34:51.443Z,3.20
2023-02-21T19:37:22.239Z,2.80
2023-02-21T19:39:53.038Z,2.90
2023-02-21T19:42:27.174Z,3.00
2023-02-21T19:44:59.850Z,3.30
2023-02-21T19:47:37.879Z,3.20
2023-02-21T19:50:12.500Z,3.70
2023-02-21T19:52:43.027Z,3.40
2023-02-21T19:55:15.143Z,3.20
2023-02-21T19:57:45.708Z,3.60
2023-02-21T20:00:17.378Z,4.20
2023-02-21T20:02:52.252Z,3.80
2023-02-21T20:05:27.702Z,3.20
2023-02-21T20:07:58.834Z,3.40
2023-02-21T20:10:31.435Z,2.70
2023-02-21T20:13:06.308Z,2.80
2023-02-21T20:15:37.807Z,2.80
2023-02-21T20:18:08.595Z,3.00
2023-02-21T20:20:39.362Z,3.60
2023-02-21T20:23:11.343Z,2.80
2023-02-21T20:25:42.219Z,2.70
2023-02-21T20:28:12.744Z,2.90
2023-02-21T20:30:44.037Z,2.70
2023-02-21T20:33:15.289Z,2.70
2023-02-21T20:35:47.155Z,2.30
2023-02-21T20:38:18.030Z,2.60
2023-02-21T20:40:48.979Z,2.50
2023-02-21T20:43:19.417Z,2.90
2023-02-21T20:45:52.085Z,2.40
2023-02-21T20:48:25.631Z,2.60
2023-02-21T20:50:56.211Z,2.40
2023-02-21T20:53:28.398Z,2.40
2023-02-21T20:56:02.204Z,2.40
2023-02-21T20:58:37.499Z,2.90
2023-02-21T21:01:15.369Z,3.10
2023-02-21T21:03:49.007Z,2.30
2023-02-21T21:06:22.970Z,2.80
2023-02-21T21:08:54.769Z,2.40
2023-02-21T21:11:28.800Z,2.70
2023-02-21T21:14:04.641Z,2.70
2023-02-21T21:16:37.199Z,2.30
2023-02-21T21:19:09.080Z,2.90
2023-02-21T21:21:40.216Z,2.10
2023-02-21T21:24:12.684Z,2.70
2023-02-21T21:26:53.048Z,3.00
2023-02-21T21:29:28.801Z,2.60
2023-02-21T21:32:03.081Z,3.10
2023-02-21T21:34:41.491Z,2.70
2023-02-21T21:37:18.770Z,2.60
2023-02-21T21:39:52.487Z,3.70
2023-02-21T21:42:26.947Z,2.60
2023-02-21T21:44:59.165Z,3.50
2023-02-21T21:47:34.515Z,3.60
2023-02-21T21:50:06.061Z,3.40
2023-02-21T21:52:37.006Z,3.70
2023-02-21T21:55:09.776Z,3.90
2023-02-21T21:57:47.362Z,3.60
2023-02-21T22:00:27.236Z,4.00
2023-02-21T22:03:02.627Z,3.30
2023-02-21T22:05:36.448Z,4.00
2023-02-21T22:08:07.995Z,3.30
2023-02-21T22:10:44.213Z,3.20
2023-02-21T22:13:20.813Z,2.80
2023-02-21T22:15:56.263Z,2.80
2023-02-21T22:18:29.012Z,4.00
2023-02-21T22:21:01.954Z,2.60
2023-02-21T22:23:33.422Z,3.40
2023-02-21T22:26:04.479Z,3.50
2023-02-21T22:28:35.407Z,3.80
2023-02-21T22:31:08.366Z,5.40
2023-02-21T22:33:57.098Z,3.60
2023-02-21T22:36:32.407Z,3.80
2023-02-21T22:39:08.749Z,4.00
2023-02-21T22:41:40.938Z,3.90
2023-02-21T22:44:13.661Z,4.30
2023-02-21T22:46:45.769Z,4.40
2023-02-21T22:49:19.955Z,4.60
2023-02-21T22:51:57.553Z,4.20
2023-02-21T22:54:31.807Z,4.60
2023-02-21T22:57:04.560Z,3.80
2023-02-21T22:59:44.926Z,3.70
2023-02-21T23:02:16.976Z,3.20
2023-02-21T23:04:47.434Z,3.60
2023-02-21T23:07:20.562Z,3.40
2023-02-21T23:09:53.006Z,3.50
2023-02-21T23:12:25.939Z,3.70
2023-02-21T23:14:56.616Z,3.40
2023-02-21T23:17:27.302Z,3.80
2023-02-21T23:20:00.888Z,3.60
2023-02-21T23:22:31.856Z,4.40
2023-02-21T23:25:04.013Z,3.50
2023-02-21T23:27:34.694Z,4.20
2023-02-21T23:30:10.233Z,3.40
2023-02-21T23:32:40.711Z,3.60
2023-02-21T23:35:11.295Z,3.80
2023-02-21T23:37:44.117Z,4.70
2023-02-21T23:40:18.708Z,3.90
2023-02-21T23:42:50.918Z,3.90
2023-02-21T23:45:23.363Z,3.70
2023-02-21T23:47:55.485Z,4.10
2023-02-21T23:50:30.639Z,3.90
2023-02-21T23:53:02.501Z,3.70
2023-02-21T23:55:36.040Z,3.70
2023-02-21T23:58:10.563Z,4.10
